sensor_id;sensor_type;location;lat;lon;timestamp;pressure;altitude;pressure_sealevel;temperature;humidity
12195;BME280;27023;42.680;23.132;2022-07-11T00:00:49;92199.31;;;15.88;81.86
12195;BME280;27023;42.680;23.132;2022-07-11T00:03:16;92203.88;;;15.88;82.08
12195;BME280;27023;42.680;23.132;2022-07-11T00:05:42;92198.50;;;15.67;83.53
12195;BME280;27023;42.680;23.132;2022-07-11T00:08:09;92191.72;;;15.91;83.63
12195;BME280;27023;42.680;23.132;2022-07-11T00:10:36;92200.75;;;15.65;83.62
12195;BME280;27023;42.680;23.132;2022-07-11T00:13:02;92202.66;;;15.68;85.67
12195;BME280;27023;42.680;23.132;2022-07-11T00:15:31;92196.97;;;15.66;84.84
12195;BME280;27023;42.680;23.132;2022-07-11T00:17:57;92202.50;;;15.46;86.05
12195;BME280;27023;42.680;23.132;2022-07-11T00:20:24;92208.59;;;15.50;84.38
12195;BME280;27023;42.680;23.132;2022-07-11T00:22:51;92201.41;;;15.54;85.11
12195;BME280;27023;42.680;23.132;2022-07-11T00:25:17;92209.50;;;15.69;89.80
12195;BME280;27023;42.680;23.132;2022-07-11T00:27:44;92206.66;;;15.37;88.27
12195;BME280;27023;42.680;23.132;2022-07-11T00:30:11;92211.59;;;15.38;86.61
12195;BME280;27023;42.680;23.132;2022-07-11T00:32:39;92207.47;;;15.51;87.61
12195;BME280;27023;42.680;23.132;2022-07-11T00:35:06;92214.31;;;15.52;85.29
12195;BME280;27023;42.680;23.132;2022-07-11T00:37:33;92205.75;;;15.77;83.02
12195;BME280;27023;42.680;23.132;2022-07-11T00:40:00;92223.56;;;15.73;85.24
12195;BME280;27023;42.680;23.132;2022-07-11T00:42:27;92210.66;;;15.75;84.61
12195;BME280;27023;42.680;23.132;2022-07-11T00:44:54;92212.84;;;15.58;85.65
12195;BME280;27023;42.680;23.132;2022-07-11T00:47:21;92211.41;;;15.72;83.13
12195;BME280;27023;42.680;23.132;2022-07-11T00:49:49;92214.25;;;15.42;86.76
12195;BME280;27023;42.680;23.132;2022-07-11T00:52:16;92212.38;;;15.46;84.94
12195;BME280;27023;42.680;23.132;2022-07-11T00:54:43;92214.25;;;15.38;84.97
12195;BME280;27023;42.680;23.132;2022-07-11T00:57:11;92223.38;;;15.44;86.52
12195;BME280;27023;42.680;23.132;2022-07-11T00:59:39;92218.78;;;15.34;85.92
12195;BME280;27023;42.680;23.132;2022-07-11T01:02:05;92214.63;;;15.37;85.67
12195;BME280;27023;42.680;23.132;2022-07-11T01:04:32;92208.16;;;15.34;85.96
12195;BME280;27023;42.680;23.132;2022-07-11T01:07:01;92216.84;;;15.27;86.40
12195;BME280;27023;42.680;23.132;2022-07-11T01:09:28;92207.72;;;15.25;84.84
12195;BME280;27023;42.680;23.132;2022-07-11T01:11:54;92201.97;;;15.12;87.52
12195;BME280;27023;42.680;23.132;2022-07-11T01:14:23;92203.19;;;15.25;84.29
12195;BME280;27023;42.680;23.132;2022-07-11T01:16:50;92205.88;;;15.33;85.60
12195;BME280;27023;42.680;23.132;2022-07-11T01:19:17;92218.75;;;15.31;83.77
12195;BME280;27023;42.680;23.132;2022-07-11T01:21:47;92207.78;;;15.39;83.23
12195;BME280;27023;42.680;23.132;2022-07-11T01:24:16;92219.44;;;15.17;83.77
12195;BME280;27023;42.680;23.132;2022-07-11T01:26:44;92210.75;;;15.23;84.00
12195;BME280;27023;42.680;23.132;2022-07-11T01:29:13;92194.44;;;15.25;84.59
12195;BME280;27023;42.680;23.132;2022-07-11T01:31:41;92210.34;;;15.18;86.30
12195;BME280;27023;42.680;23.132;2022-07-11T01:34:09;92205.03;;;15.18;85.04
12195;BME280;27023;42.680;23.132;2022-07-11T01:36:36;92209.47;;;15.00;84.94
12195;BME280;27023;42.680;23.132;2022-07-11T01:39:03;92200.75;;;14.99;85.36
12195;BME280;27023;42.680;23.132;2022-07-11T01:41:31;92211.72;;;14.98;84.72
12195;BME280;27023;42.680;23.132;2022-07-11T01:43:58;92215.50;;;14.93;84.86
12195;BME280;27023;42.680;23.132;2022-07-11T01:46:25;92208.75;;;15.06;85.00
12195;BME280;27023;42.680;23.132;2022-07-11T01:48:51;92204.63;;;15.16;85.62
12195;BME280;27023;42.680;23.132;2022-07-11T01:51:18;92208.81;;;15.17;84.04
12195;BME280;27023;42.680;23.132;2022-07-11T01:53:45;92202.06;;;15.30;83.01
12195;BME280;27023;42.680;23.132;2022-07-11T01:56:11;92209.50;;;15.07;83.42
12195;BME280;27023;42.680;23.132;2022-07-11T01:58:39;92206.88;;;15.10;82.97
12195;BME280;27023;42.680;23.132;2022-07-11T02:01:06;92211.88;;;15.22;82.49
12195;BME280;27023;42.680;23.132;2022-07-11T02:03:33;92213.22;;;14.95;83.95
12195;BME280;27023;42.680;23.132;2022-07-11T02:06:00;92208.00;;;15.06;83.14
12195;BME280;27023;42.680;23.132;2022-07-11T02:08:27;92217.09;;;15.05;84.37
12195;BME280;27023;42.680;23.132;2022-07-11T02:10:53;92220.44;;;14.94;83.98
12195;BME280;27023;42.680;23.132;2022-07-11T02:13:21;92217.31;;;14.85;84.59
12195;BME280;27023;42.680;23.132;2022-07-11T02:15:50;92215.38;;;14.82;85.74
12195;BME280;27023;42.680;23.132;2022-07-11T02:18:19;92222.16;;;14.76;86.44
12195;BME280;27023;42.680;23.132;2022-07-11T02:20:46;92223.56;;;14.63;85.82
12195;BME280;27023;42.680;23.132;2022-07-11T02:23:15;92238.81;;;14.32;88.84
12195;BME280;27023;42.680;23.132;2022-07-11T02:25:41;92227.19;;;14.44;88.83
12195;BME280;27023;42.680;23.132;2022-07-11T02:28:08;92236.75;;;14.15;96.62
12195;BME280;27023;42.680;23.132;2022-07-11T02:30:35;92229.97;;;14.18;100.00
12195;BME280;27023;42.680;23.132;2022-07-11T02:33:04;92233.03;;;13.90;100.00
12195;BME280;27023;42.680;23.132;2022-07-11T02:35:32;92224.91;;;13.42;100.00
12195;BME280;27023;42.680;23.132;2022-07-11T02:37:59;92229.34;;;13.34;100.00
12195;BME280;27023;42.680;23.132;2022-07-11T02:40:26;92226.03;;;13.41;100.00
12195;BME280;27023;42.680;23.132;2022-07-11T02:42:53;92237.63;;;13.59;100.00
12195;BME280;27023;42.680;23.132;2022-07-11T02:45:20;92246.44;;;13.71;96.79
12195;BME280;27023;42.680;23.132;2022-07-11T02:47:47;92243.53;;;13.79;100.00
12195;BME280;27023;42.680;23.132;2022-07-11T02:50:15;92258.41;;;13.91;94.63
12195;BME280;27023;42.680;23.132;2022-07-11T02:52:42;92259.63;;;13.97;93.89
12195;BME280;27023;42.680;23.132;2022-07-11T02:55:11;92250.94;;;14.00;93.58
12195;BME280;27023;42.680;23.132;2022-07-11T02:57:38;92261.47;;;13.93;94.14
12195;BME280;27023;42.680;23.132;2022-07-11T03:00:07;92253.28;;;14.05;92.68
12195;BME280;27023;42.680;23.132;2022-07-11T03:02:35;92255.38;;;14.22;92.92
12195;BME280;27023;42.680;23.132;2022-07-11T03:05:02;92256.97;;;14.30;90.72
12195;BME280;27023;42.680;23.132;2022-07-11T03:07:30;92261.22;;;14.05;95.05
12195;BME280;27023;42.680;23.132;2022-07-11T03:09:57;92256.25;;;14.34;90.69
12195;BME280;27023;42.680;23.132;2022-07-11T03:12:23;92260.09;;;14.06;98.54
12195;BME280;27023;42.680;23.132;2022-07-11T03:14:50;92273.28;;;14.32;97.67
12195;BME280;27023;42.680;23.132;2022-07-11T03:17:17;92271.50;;;14.10;100.00
12195;BME280;27023;42.680;23.132;2022-07-11T03:19:44;92271.81;;;14.05;100.00
12195;BME280;27023;42.680;23.132;2022-07-11T03:22:12;92270.03;;;14.13;100.00
12195;BME280;27023;42.680;23.132;2022-07-11T03:24:40;92269.81;;;13.95;100.00
12195;BME280;27023;42.680;23.132;2022-07-11T03:27:07;92268.28;;;13.94;98.24
12195;BME280;27023;42.680;23.132;2022-07-11T03:29:35;92255.66;;;14.14;97.86
12195;BME280;27023;42.680;23.132;2022-07-11T03:32:02;92269.81;;;14.28;96.95
12195;BME280;27023;42.680;23.132;2022-07-11T03:34:29;92267.72;;;14.11;96.02
12195;BME280;27023;42.680;23.132;2022-07-11T03:36:56;92260.81;;;14.03;95.59
12195;BME280;27023;42.680;23.132;2022-07-11T03:39:23;92258.13;;;14.33;93.46
12195;BME280;27023;42.680;23.132;2022-07-11T03:41:51;92267.44;;;14.53;92.73
12195;BME280;27023;42.680;23.132;2022-07-11T03:44:18;92271.00;;;14.68;91.74
12195;BME280;27023;42.680;23.132;2022-07-11T03:46:44;92278.81;;;14.54;92.95
12195;BME280;27023;42.680;23.132;2022-07-11T03:49:11;92279.13;;;14.45;93.15
12195;BME280;27023;42.680;23.132;2022-07-11T03:51:38;92283.38;;;14.57;93.85
12195;BME280;27023;42.680;23.132;2022-07-11T03:54:05;92290.34;;;14.72;93.86
12195;BME280;27023;42.680;23.132;2022-07-11T03:56:31;92286.38;;;14.52;95.46
12195;BME280;27023;42.680;23.132;2022-07-11T03:58:59;92285.31;;;14.23;100.00
12195;BME280;27023;42.680;23.132;2022-07-11T04:01:26;92288.06;;;14.34;100.00
12195;BME280;27023;42.680;23.132;2022-07-11T04:03:53;92291.16;;;14.39;98.18
12195;BME280;27023;42.680;23.132;2022-07-11T04:06:20;92296.16;;;14.44;99.62
12195;BME280;27023;42.680;23.132;2022-07-11T04:08:46;92300.03;;;14.20;100.00
12195;BME280;27023;42.680;23.132;2022-07-11T04:11:13;92304.81;;;14.41;98.12
12195;BME280;27023;42.680;23.132;2022-07-11T04:13:40;92308.66;;;14.44;98.25
12195;BME280;27023;42.680;23.132;2022-07-11T04:16:08;92307.53;;;14.45;98.17
12195;BME280;27023;42.680;23.132;2022-07-11T04:18:34;92308.22;;;14.42;100.00
12195;BME280;27023;42.680;23.132;2022-07-11T04:21:01;92306.88;;;14.55;100.00
12195;BME280;27023;42.680;23.132;2022-07-11T04:23:28;92310.56;;;14.47;100.00
12195;BME280;27023;42.680;23.132;2022-07-11T04:25:55;92302.13;;;14.75;97.48
12195;BME280;27023;42.680;23.132;2022-07-11T04:28:21;92304.75;;;14.71;100.00
12195;BME280;27023;42.680;23.132;2022-07-11T04:30:48;92307.78;;;14.73;100.00
12195;BME280;27023;42.680;23.132;2022-07-11T04:33:16;92310.25;;;14.92;97.87
12195;BME280;27023;42.680;23.132;2022-07-11T04:35:43;92312.19;;;14.96;97.56
12195;BME280;27023;42.680;23.132;2022-07-11T04:38:10;92313.25;;;14.87;96.29
12195;BME280;27023;42.680;23.132;2022-07-11T04:40:36;92304.53;;;14.87;96.95
12195;BME280;27023;42.680;23.132;2022-07-11T04:43:03;92307.13;;;14.83;100.00
12195;BME280;27023;42.680;23.132;2022-07-11T04:45:30;92309.28;;;14.71;100.00
12195;BME280;27023;42.680;23.132;2022-07-11T04:47:57;92307.00;;;14.69;98.59
12195;BME280;27023;42.680;23.132;2022-07-11T04:50:26;92320.78;;;14.85;99.05
12195;BME280;27023;42.680;23.132;2022-07-11T04:52:52;92317.03;;;14.86;98.21
12195;BME280;27023;42.680;23.132;2022-07-11T04:55:19;92322.66;;;14.81;98.48
12195;BME280;27023;42.680;23.132;2022-07-11T04:57:46;92319.94;;;14.74;100.00
12195;BME280;27023;42.680;23.132;2022-07-11T05:00:13;92326.69;;;14.68;100.00
12195;BME280;27023;42.680;23.132;2022-07-11T05:02:39;92335.28;;;14.91;98.45
12195;BME280;27023;42.680;23.132;2022-07-11T05:05:07;92324.44;;;15.11;97.55
12195;BME280;27023;42.680;23.132;2022-07-11T05:07:35;92326.75;;;14.75;98.84
12195;BME280;27023;42.680;23.132;2022-07-11T05:10:02;92334.47;;;14.87;97.40
12195;BME280;27023;42.680;23.132;2022-07-11T05:12:29;92333.34;;;14.88;96.98
12195;BME280;27023;42.680;23.132;2022-07-11T05:14:55;92328.81;;;14.89;93.26
12195;BME280;27023;42.680;23.132;2022-07-11T05:17:24;92328.75;;;14.85;93.65
12195;BME280;27023;42.680;23.132;2022-07-11T05:19:50;92332.59;;;14.88;92.44
12195;BME280;27023;42.680;23.132;2022-07-11T05:22:17;92333.03;;;14.93;92.62
12195;BME280;27023;42.680;23.132;2022-07-11T05:24:45;92332.38;;;15.07;92.14
12195;BME280;27023;42.680;23.132;2022-07-11T05:27:12;92325.56;;;15.10;90.51
12195;BME280;27023;42.680;23.132;2022-07-11T05:29:38;92335.56;;;15.27;90.11
12195;BME280;27023;42.680;23.132;2022-07-11T05:32:06;92342.25;;;15.10;88.94
12195;BME280;27023;42.680;23.132;2022-07-11T05:34:32;92342.03;;;15.30;89.65
12195;BME280;27023;42.680;23.132;2022-07-11T05:36:59;92329.56;;;15.37;87.77
12195;BME280;27023;42.680;23.132;2022-07-11T05:39:26;92346.13;;;15.20;89.00
12195;BME280;27023;42.680;23.132;2022-07-11T05:41:54;92339.28;;;15.19;86.58
12195;BME280;27023;42.680;23.132;2022-07-11T05:44:21;92337.94;;;15.39;84.59
12195;BME280;27023;42.680;23.132;2022-07-11T05:46:47;92342.53;;;15.46;82.10
12195;BME280;27023;42.680;23.132;2022-07-11T05:49:14;92341.38;;;15.43;83.72
12195;BME280;27023;42.680;23.132;2022-07-11T05:51:41;92340.03;;;15.16;85.75
12195;BME280;27023;42.680;23.132;2022-07-11T05:54:08;92352.03;;;15.47;84.69
12195;BME280;27023;42.680;23.132;2022-07-11T05:56:34;92354.47;;;15.63;85.66
12195;BME280;27023;42.680;23.132;2022-07-11T05:59:02;92363.22;;;15.67;84.39
12195;BME280;27023;42.680;23.132;2022-07-11T06:01:29;92354.50;;;15.70;84.34
12195;BME280;27023;42.680;23.132;2022-07-11T06:03:57;92360.31;;;15.89;82.25
12195;BME280;27023;42.680;23.132;2022-07-11T06:06:25;92360.97;;;15.69;80.09
12195;BME280;27023;42.680;23.132;2022-07-11T06:08:51;92346.38;;;15.52;76.72
12195;BME280;27023;42.680;23.132;2022-07-11T06:11:18;92361.09;;;15.42;70.50
12195;BME280;27023;42.680;23.132;2022-07-11T06:13:45;92365.34;;;15.50;69.64
12195;BME280;27023;42.680;23.132;2022-07-11T06:16:14;92353.81;;;15.32;66.57
12195;BME280;27023;42.680;23.132;2022-07-11T06:18:41;92353.22;;;15.56;65.66
12195;BME280;27023;42.680;23.132;2022-07-11T06:21:09;92351.00;;;15.58;66.56
12195;BME280;27023;42.680;23.132;2022-07-11T06:23:36;92366.41;;;15.42;64.93
12195;BME280;27023;42.680;23.132;2022-07-11T06:26:04;92358.53;;;15.56;64.66
12195;BME280;27023;42.680;23.132;2022-07-11T06:28:30;92368.78;;;15.54;66.38
12195;BME280;27023;42.680;23.132;2022-07-11T06:30:57;92355.22;;;15.63;61.96
12195;BME280;27023;42.680;23.132;2022-07-11T06:33:26;92362.47;;;15.66;64.00
12195;BME280;27023;42.680;23.132;2022-07-11T06:35:53;92353.66;;;15.58;61.50
12195;BME280;27023;42.680;23.132;2022-07-11T06:38:20;92352.63;;;15.70;62.93
12195;BME280;27023;42.680;23.132;2022-07-11T06:40:47;92357.22;;;15.80;60.24
12195;BME280;27023;42.680;23.132;2022-07-11T06:43:14;92352.00;;;15.95;60.52
12195;BME280;27023;42.680;23.132;2022-07-11T06:45:41;92350.88;;;15.99;59.58
12195;BME280;27023;42.680;23.132;2022-07-11T06:48:08;92350.53;;;16.04;61.45
12195;BME280;27023;42.680;23.132;2022-07-11T06:50:46;92342.91;;;16.03;62.84
12195;BME280;27023;42.680;23.132;2022-07-11T06:53:18;92354.72;;;16.09;67.22
12195;BME280;27023;42.680;23.132;2022-07-11T06:55:45;92346.06;;;16.30;61.93
12195;BME280;27023;42.680;23.132;2022-07-11T06:58:12;92340.84;;;16.47;63.73
12195;BME280;27023;42.680;23.132;2022-07-11T07:00:56;92342.72;;;16.43;66.23
12195;BME280;27023;42.680;23.132;2022-07-11T07:03:23;92343.09;;;16.38;62.30
12195;BME280;27023;42.680;23.132;2022-07-11T07:05:51;92342.31;;;16.38;63.59
12195;BME280;27023;42.680;23.132;2022-07-11T07:08:21;92345.38;;;16.36;64.34
12195;BME280;27023;42.680;23.132;2022-07-11T07:10:48;92344.94;;;16.31;65.23
12195;BME280;27023;42.680;23.132;2022-07-11T07:13:15;92345.28;;;16.18;64.55
12195;BME280;27023;42.680;23.132;2022-07-11T07:15:41;92337.00;;;16.38;62.44
12195;BME280;27023;42.680;23.132;2022-07-11T07:18:08;92328.66;;;16.36;62.89
12195;BME280;27023;42.680;23.132;2022-07-11T07:20:35;92332.47;;;16.49;66.85
12195;BME280;27023;42.680;23.132;2022-07-11T07:23:03;92327.16;;;16.45;67.29
12195;BME280;27023;42.680;23.132;2022-07-11T07:25:30;92337.34;;;16.33;66.97
12195;BME280;27023;42.680;23.132;2022-07-11T07:27:56;92330.22;;;16.51;64.61
12195;BME280;27023;42.680;23.132;2022-07-11T07:30:23;92334.34;;;16.38;65.97
12195;BME280;27023;42.680;23.132;2022-07-11T07:32:50;92333.16;;;16.32;63.95
12195;BME280;27023;42.680;23.132;2022-07-11T07:35:17;92343.81;;;16.32;63.55
12195;BME280;27023;42.680;23.132;2022-07-11T07:37:43;92330.88;;;16.34;60.00
12195;BME280;27023;42.680;23.132;2022-07-11T07:40:11;92327.19;;;16.56;56.49
12195;BME280;27023;42.680;23.132;2022-07-11T07:42:38;92330.97;;;16.55;60.61
12195;BME280;27023;42.680;23.132;2022-07-11T07:45:05;92331.03;;;16.69;61.88
12195;BME280;27023;42.680;23.132;2022-07-11T07:47:32;92350.81;;;16.68;58.08
12195;BME280;27023;42.680;23.132;2022-07-11T07:50:02;92342.53;;;16.04;56.70
12195;BME280;27023;42.680;23.132;2022-07-11T07:55:35;92341.59;;;16.41;58.26
12195;BME280;27023;42.680;23.132;2022-07-11T07:58:02;92334.84;;;16.68;56.76
12195;BME280;27023;42.680;23.132;2022-07-11T08:00:28;92341.97;;;16.43;58.39
12195;BME280;27023;42.680;23.132;2022-07-11T08:03:12;92337.81;;;16.49;55.51
12195;BME280;27023;42.680;23.132;2022-07-11T08:05:39;92351.47;;;16.47;57.31
12195;BME280;27023;42.680;23.132;2022-07-11T08:08:06;92348.13;;;16.65;54.37
12195;BME280;27023;42.680;23.132;2022-07-11T08:10:32;92341.72;;;16.83;55.90
12195;BME280;27023;42.680;23.132;2022-07-11T08:13:01;92339.81;;;16.88;56.32
12195;BME280;27023;42.680;23.132;2022-07-11T08:15:27;92363.78;;;16.91;55.33
12195;BME280;27023;42.680;23.132;2022-07-11T08:17:54;92341.72;;;16.91;51.90
12195;BME280;27023;42.680;23.132;2022-07-11T08:20:21;92350.88;;;16.97;53.41
12195;BME280;27023;42.680;23.132;2022-07-11T08:22:47;92346.66;;;16.81;54.47
12195;BME280;27023;42.680;23.132;2022-07-11T08:25:14;92347.44;;;16.93;58.70
12195;BME280;27023;42.680;23.132;2022-07-11T08:27:41;92352.00;;;17.03;58.43
12195;BME280;27023;42.680;23.132;2022-07-11T08:30:10;92355.78;;;16.77;59.13
12195;BME280;27023;42.680;23.132;2022-07-11T08:32:40;92353.13;;;16.80;59.61
12195;BME280;27023;42.680;23.132;2022-07-11T08:35:09;92353.53;;;17.04;58.81
12195;BME280;27023;42.680;23.132;2022-07-11T08:37:36;92355.31;;;16.53;55.05
12195;BME280;27023;42.680;23.132;2022-07-11T08:40:04;92362.16;;;16.62;60.69
12195;BME280;27023;42.680;23.132;2022-07-11T08:42:32;92356.16;;;16.82;57.51
12195;BME280;27023;42.680;23.132;2022-07-11T08:45:02;92359.97;;;16.81;55.69
12195;BME280;27023;42.680;23.132;2022-07-11T08:47:31;92358.44;;;16.80;56.44
12195;BME280;27023;42.680;23.132;2022-07-11T08:50:12;92362.25;;;16.83;57.39
12195;BME280;27023;42.680;23.132;2022-07-11T08:52:45;92362.25;;;16.87;57.56
12195;BME280;27023;42.680;23.132;2022-07-11T08:55:17;92361.50;;;16.97;59.35
12195;BME280;27023;42.680;23.132;2022-07-11T08:57:46;92349.38;;;17.10;55.17
12195;BME280;27023;42.680;23.132;2022-07-11T09:00:13;92349.72;;;16.98;55.96
12195;BME280;27023;42.680;23.132;2022-07-11T09:02:42;92352.44;;;17.26;55.91
12195;BME280;27023;42.680;23.132;2022-07-11T09:05:10;92350.09;;;18.06;55.07
12195;BME280;27023;42.680;23.132;2022-07-11T09:07:42;92347.91;;;19.48;49.96
12195;BME280;27023;42.680;23.132;2022-07-11T09:10:24;92358.53;;;19.58;48.15
12195;BME280;27023;42.680;23.132;2022-07-11T09:13:01;92356.97;;;19.64;47.95
12195;BME280;27023;42.680;23.132;2022-07-11T09:15:34;92349.22;;;18.41;50.86
12195;BME280;27023;42.680;23.132;2022-07-11T09:18:03;92372.53;;;18.23;53.35
12195;BME280;27023;42.680;23.132;2022-07-11T09:20:51;92344.69;;;18.35;51.10
12195;BME280;27023;42.680;23.132;2022-07-11T09:23:36;92350.81;;;18.28;54.03
12195;BME280;27023;42.680;23.132;2022-07-11T09:26:20;92358.72;;;19.26;52.79
12195;BME280;27023;42.680;23.132;2022-07-11T09:28:58;92356.63;;;19.00;49.17
12195;BME280;27023;42.680;23.132;2022-07-11T09:31:27;92356.53;;;19.14;47.16
12195;BME280;27023;42.680;23.132;2022-07-11T09:34:03;92356.13;;;19.16;49.07
12195;BME280;27023;42.680;23.132;2022-07-11T09:36:39;92351.97;;;18.17;50.48
12195;BME280;27023;42.680;23.132;2022-07-11T09:39:06;92359.16;;;18.37;50.57
12195;BME280;27023;42.680;23.132;2022-07-11T09:41:39;92353.56;;;18.03;53.30
12195;BME280;27023;42.680;23.132;2022-07-11T09:44:13;92353.19;;;17.94;53.85
12195;BME280;27023;42.680;23.132;2022-07-11T09:46:41;92354.69;;;18.02;52.33
12195;BME280;27023;42.680;23.132;2022-07-11T09:49:10;92360.78;;;18.10;51.42
12195;BME280;27023;42.680;23.132;2022-07-11T09:51:37;92352.06;;;17.77;51.46
12195;BME280;27023;42.680;23.132;2022-07-11T09:54:06;92356.03;;;18.67;48.98
12195;BME280;27023;42.680;23.132;2022-07-11T09:56:36;92362.06;;;18.79;45.52
12195;BME280;27023;42.680;23.132;2022-07-11T09:59:06;92359.13;;;21.70;42.36
12195;BME280;27023;42.680;23.132;2022-07-11T10:01:33;92360.25;;;21.46;40.28
12195;BME280;27023;42.680;23.132;2022-07-11T10:04:00;92344.63;;;24.56;34.68
12195;BME280;27023;42.680;23.132;2022-07-11T10:06:28;92337.66;;;28.41;30.25
12195;BME280;27023;42.680;23.132;2022-07-11T10:08:55;92336.72;;;31.97;26.79
12195;BME280;27023;42.680;23.132;2022-07-11T10:11:22;92344.84;;;30.49;26.82
12195;BME280;27023;42.680;23.132;2022-07-11T10:13:50;92354.34;;;27.63;28.86
12195;BME280;27023;42.680;23.132;2022-07-11T10:16:27;92355.09;;;29.64;25.78
12195;BME280;27023;42.680;23.132;2022-07-11T10:19:05;92350.63;;;27.47;27.12
12195;BME280;27023;42.680;23.132;2022-07-11T10:21:40;92341.72;;;30.80;24.98
12195;BME280;27023;42.680;23.132;2022-07-11T10:24:19;92348.25;;;31.27;23.11
12195;BME280;27023;42.680;23.132;2022-07-11T10:26:55;92347.53;;;33.39;21.64
12195;BME280;27023;42.680;23.132;2022-07-11T10:29:30;92340.13;;;30.74;23.61
12195;BME280;27023;42.680;23.132;2022-07-11T10:32:09;92337.59;;;33.67;21.61
12195;BME280;27023;42.680;23.132;2022-07-11T10:34:37;92340.44;;;32.54;22.56
12195;BME280;27023;42.680;23.132;2022-07-11T10:37:06;92353.78;;;27.77;26.35
12195;BME280;27023;42.680;23.132;2022-07-11T10:39:35;92349.28;;;27.83;27.65
12195;BME280;27023;42.680;23.132;2022-07-11T10:42:04;92335.69;;;26.37;30.12
12195;BME280;27023;42.680;23.132;2022-07-11T10:44:50;92362.81;;;23.74;34.59
12195;BME280;27023;42.680;23.132;2022-07-11T10:47:33;92353.53;;;23.43;33.77
12195;BME280;27023;42.680;23.132;2022-07-11T10:50:10;92350.66;;;21.72;36.96
12195;BME280;27023;42.680;23.132;2022-07-11T10:52:42;92343.50;;;21.11;37.23
12195;BME280;27023;42.680;23.132;2022-07-11T10:55:21;92361.53;;;20.46;39.05
12195;BME280;27023;42.680;23.132;2022-07-11T10:58:02;92355.81;;;19.07;40.60
12195;BME280;27023;42.680;23.132;2022-07-11T11:00:31;92367.28;;;19.00;43.46
12195;BME280;27023;42.680;23.132;2022-07-11T11:03:00;92364.69;;;18.89;42.19
12195;BME280;27023;42.680;23.132;2022-07-11T11:05:43;92359.19;;;19.14;41.62
12195;BME280;27023;42.680;23.132;2022-07-11T11:08:43;92364.78;;;19.38;42.32
12195;BME280;27023;42.680;23.132;2022-07-11T11:11:35;92368.28;;;19.24;42.04
12195;BME280;27023;42.680;23.132;2022-07-11T11:14:28;92360.56;;;19.40;42.84
12195;BME280;27023;42.680;23.132;2022-07-11T11:16:55;92355.59;;;18.80;43.15
12195;BME280;27023;42.680;23.132;2022-07-11T11:19:53;92374.41;;;19.24;42.96
12195;BME280;27023;42.680;23.132;2022-07-11T11:22:22;92367.34;;;18.89;42.71
12195;BME280;27023;42.680;23.132;2022-07-11T11:24:54;92358.31;;;19.31;43.25
12195;BME280;27023;42.680;23.132;2022-07-11T11:27:22;92348.78;;;19.34;43.33
12195;BME280;27023;42.680;23.132;2022-07-11T11:29:51;92364.78;;;19.38;45.47
12195;BME280;27023;42.680;23.132;2022-07-11T11:32:18;92355.22;;;19.40;45.00
12195;BME280;27023;42.680;23.132;2022-07-11T11:34:46;92368.56;;;19.44;41.29
12195;BME280;27023;42.680;23.132;2022-07-11T11:37:15;92366.66;;;19.41;42.04
12195;BME280;27023;42.680;23.132;2022-07-11T11:39:42;92356.75;;;19.38;42.07
12195;BME280;27023;42.680;23.132;2022-07-11T11:42:12;92338.97;;;19.68;41.92
12195;BME280;27023;42.680;23.132;2022-07-11T11:44:56;92355.22;;;19.88;44.30
12195;BME280;27023;42.680;23.132;2022-07-11T11:47:25;92356.22;;;20.02;41.69
12195;BME280;27023;42.680;23.132;2022-07-11T11:49:52;92367.19;;;19.18;43.95
12195;BME280;27023;42.680;23.132;2022-07-11T11:52:19;92361.94;;;19.62;44.69
12195;BME280;27023;42.680;23.132;2022-07-11T11:54:56;92371.53;;;20.01;42.86
12195;BME280;27023;42.680;23.132;2022-07-11T11:57:26;92370.25;;;19.72;42.58
12195;BME280;27023;42.680;23.132;2022-07-11T11:59:53;92372.09;;;20.23;43.92
12195;BME280;27023;42.680;23.132;2022-07-11T12:02:23;92368.19;;;20.31;43.58
12195;BME280;27023;42.680;23.132;2022-07-11T12:04:50;92350.31;;;20.21;42.89
12195;BME280;27023;42.680;23.132;2022-07-11T12:07:27;92376.63;;;19.88;44.77
12195;BME280;27023;42.680;23.132;2022-07-11T12:09:56;92376.88;;;18.94;45.10
12195;BME280;27023;42.680;23.132;2022-07-11T12:12:26;92384.22;;;18.76;44.97
12195;BME280;27023;42.680;23.132;2022-07-11T12:15:27;92372.38;;;19.43;45.70
12195;BME280;27023;42.680;23.132;2022-07-11T12:17:59;92362.25;;;19.72;44.38
12195;BME280;27023;42.680;23.132;2022-07-11T12:20:36;92365.38;;;19.63;47.65
12195;BME280;27023;42.680;23.132;2022-07-11T12:23:05;92369.75;;;19.35;48.07
12195;BME280;27023;42.680;23.132;2022-07-11T12:25:34;92377.75;;;19.87;47.66
12195;BME280;27023;42.680;23.132;2022-07-11T12:28:02;92363.63;;;19.87;44.92
12195;BME280;27023;42.680;23.132;2022-07-11T12:30:30;92353.06;;;20.14;42.42
12195;BME280;27023;42.680;23.132;2022-07-11T12:33:05;92361.00;;;20.24;43.62
12195;BME280;27023;42.680;23.132;2022-07-11T12:35:35;92364.78;;;20.27;44.48
12195;BME280;27023;42.680;23.132;2022-07-11T12:38:03;92366.72;;;19.85;45.01
12195;BME280;27023;42.680;23.132;2022-07-11T12:40:30;92369.09;;;19.76;44.82
12195;BME280;27023;42.680;23.132;2022-07-11T12:42:57;92370.97;;;19.24;47.42
12195;BME280;27023;42.680;23.132;2022-07-11T12:45:25;92354.47;;;19.84;45.67
12195;BME280;27023;42.680;23.132;2022-07-11T12:47:51;92351.84;;;20.22;46.90
12195;BME280;27023;42.680;23.132;2022-07-11T12:50:20;92365.44;;;20.38;48.53
12195;BME280;27023;42.680;23.132;2022-07-11T12:52:49;92356.53;;;20.82;43.46
12195;BME280;27023;42.680;23.132;2022-07-11T12:55:20;92353.50;;;20.77;41.02
12195;BME280;27023;42.680;23.132;2022-07-11T12:58:00;92365.84;;;20.71;40.90
12195;BME280;27023;42.680;23.132;2022-07-11T13:00:29;92368.59;;;20.63;41.95
12195;BME280;27023;42.680;23.132;2022-07-11T13:02:57;92368.50;;;20.37;41.53